Rankings de siempre
Mejores tiempos personales válidos de equipo a través de todos los eventos y temporadas. Cada equipo aparece una vez por división.
Busca por nombre y abre la página donde está clasificado este récord de división.
137,494 equipos clasificados
| Pos. | Pos. AG | Equipo | Nacionalidad | Categoría de edad | TiempoMejor tiempo | Diferencia |
|---|---|---|---|---|---|---|
| 133026 | -- | Brooke Kleinschmidt & Emmy HeitAUS · W WU29 | AUS | W WU29 | 2:00:21 | +67:00 |
| 133027 | #42081 | Stacy Markiewicz & Mollie WallaceAUS · W 30-34 · AG #42081 | AUS | W 30-34 | 2:00:21 | +67:00 |
| 133028 | -- | Wen En Yap & Jolene QuekSIN · W WU29 | SIN | W WU29 | 2:00:21 | +67:00 |
| 133029 | #14529 | Richelle Limun & Lauren CruzUSA · W 35-39 · AG #14529 | USA | W 35-39 | 2:00:21 | +67:00 |
| 133030 | #3088 | Carrie Shields & Kimberly KauweUSA · W 50-54 · AG #3088 | USA | W 50-54 | 2:00:21 | +67:00 |
| 133031 | #14530 | Charlotte Roode & Carolyn RoodeRSA · W 35-39 · AG #14530 | RSA | W 35-39 | 2:00:21 | +67:00 |
| 133032 | #42082 | Kate Rongo-Raea & Anna VernonW 30-34 · AG #42082 | -- | W 30-34 | 2:00:22 | +67:01 |
| 133033 | #19723 | Troi Jefferson & Vaterra CalaisUSA · W 25-29 · AG #19723 | USA | W 25-29 | 2:00:22 | +67:01 |
| 133034 | #18940 | Louise Loughlin & Monika MazurkiewiczW 40-44 · AG #18940 | -- | W 40-44 | 2:00:22 | +67:01 |
| 133035 | #14531 | Nolukholo Leasu & Keaobaka MorareRSA · W 35-39 · AG #14531 | RSA | W 35-39 | 2:00:22 | +67:01 |
| 133036 | #18941 | Cyeria Jackson & Britney HammondsUSA · W 40-44 · AG #18941 | USA | W 40-44 | 2:00:22 | +67:01 |
| 133037 | #42083 | Katia Margarita Rodriguez Cazares & Cindy Carolina MoralesMEX · W 30-34 · AG #42083 | MEX | W 30-34 | 2:00:23 | +67:02 |
| 133038 | #3089 | Irene Tang & Josephine MaguireGBR · W 50-54 · AG #3089 | GBR | W 50-54 | 2:00:23 | +67:02 |
| 133039 | #42084 | Cindy Michelle Aceves Zermeno & Teresita Del Carmen Alvarez MontanoMEX · W 30-34 · AG #42084 | MEX | W 30-34 | 2:00:23 | +67:02 |
| 133040 | #18942 | 倩然 吴 & 晨 邱CHN · W 40-44 · AG #18942 | CHN | W 40-44 | 2:00:23 | +67:02 |
| 133041 | #10920 | Lexi Caddell & Haylee CambasUSA · W 16-24 · AG #10920 | USA | W 16-24 | 2:00:23 | +67:02 |
| 133042 | #14532 | Maria Saldana & Jess HolmesUSA · W 35-39 · AG #14532 | USA | W 35-39 | 2:00:24 | +67:03 |
| 133043 | #19724 | Madison Macleod & Keesha SinclairCAN · W 25-29 · AG #19724 | CAN | W 25-29 | 2:00:24 | +67:03 |
| 133044 | #18943 | Erin Chavez & Maria RamosUSA · W 40-44 · AG #18943 | USA | W 40-44 | 2:00:24 | +67:03 |
| 133045 | #14533 | Kristina Peet & Hailey CasasUSA · W 35-39 · AG #14533 | USA | W 35-39 | 2:00:24 | +67:03 |
| 133046 | #42085 | Asmeeta Dewari & Dimple MaleriIND · W 30-34 · AG #42085 | IND | W 30-34 | 2:00:24 | +67:03 |
| 133047 | #10921 | Lucciana Pillado & Emilia GerardoMEX · W 16-24 · AG #10921 | MEX | W 16-24 | 2:00:25 | +67:04 |
| 133048 | #505 | Karin Maree & Bea DayRSA · W 55-59 · AG #505 | RSA | W 55-59 | 2:00:25 | +67:04 |
| 133049 | #10922 | Grace Rahal & Ari ChilsonUSA · W 16-24 · AG #10922 | USA | W 16-24 | 2:00:25 | +67:04 |
| 133050 | #42086 | Thai Phung Le & Melissa StannettAUS · W 30-34 · AG #42086 | AUS | W 30-34 | 2:00:25 | +67:04 |
Página 5,322 de 5,500